createdAt,value
2023-01-12T00:00:10.077Z,7.1
2023-01-12T00:03:09.649Z,7.2
2023-01-12T00:06:09.724Z,7.2
2023-01-12T00:09:09.753Z,7.2
2023-01-12T00:12:09.772Z,7.1
2023-01-12T00:15:09.755Z,7.2
2023-01-12T00:18:09.776Z,7.2
2023-01-12T00:21:09.723Z,7.2
2023-01-12T00:24:09.658Z,7.1
2023-01-12T00:27:09.748Z,7
2023-01-12T00:30:09.720Z,6.9
2023-01-12T00:33:09.699Z,6.9
2023-01-12T00:36:09.711Z,6.9
2023-01-12T00:39:09.754Z,6.9
2023-01-12T00:42:09.808Z,7
2023-01-12T00:45:09.663Z,7
2023-01-12T00:48:09.682Z,7
2023-01-12T00:51:09.747Z,7.1
2023-01-12T00:54:09.724Z,7.1
2023-01-12T00:57:09.665Z,7.1
2023-01-12T01:00:10.167Z,7.2
2023-01-12T01:03:09.944Z,7.2
2023-01-12T01:06:09.705Z,7.2
2023-01-12T01:09:09.732Z,7.2
2023-01-12T01:12:09.871Z,7.2
2023-01-12T01:15:09.803Z,7.2
2023-01-12T01:18:09.866Z,7.2
2023-01-12T01:21:09.763Z,7.1
2023-01-12T01:24:09.714Z,7.1
2023-01-12T01:27:09.754Z,7.1
2023-01-12T01:30:09.783Z,7.2
2023-01-12T01:33:09.812Z,7.1
2023-01-12T01:36:09.651Z,7
2023-01-12T01:39:09.702Z,6.9
2023-01-12T01:42:09.758Z,6.8
2023-01-12T01:45:09.785Z,6.8
2023-01-12T01:48:09.787Z,6.9
2023-01-12T01:51:09.768Z,7
2023-01-12T01:54:09.796Z,7.1
2023-01-12T01:57:09.696Z,7.1
2023-01-12T02:00:09.867Z,7.1
2023-01-12T02:03:10.270Z,7.1
2023-01-12T02:06:09.695Z,7.1
2023-01-12T02:09:09.799Z,7.1
2023-01-12T02:12:09.783Z,7.1
2023-01-12T02:15:09.827Z,7.1
2023-01-12T02:18:09.700Z,7.1
2023-01-12T02:21:09.796Z,7.1
2023-01-12T02:24:09.687Z,7.1
2023-01-12T02:27:09.809Z,7.2
2023-01-12T02:30:09.832Z,7.2
2023-01-12T02:33:09.682Z,7.2
2023-01-12T02:36:09.716Z,7.3
2023-01-12T02:39:09.643Z,7.3
2023-01-12T02:42:09.728Z,7.4
2023-01-12T02:45:09.804Z,7.4
2023-01-12T02:48:09.860Z,7.3
2023-01-12T02:51:09.816Z,7.4
2023-01-12T02:54:09.696Z,7.4
2023-01-12T02:57:09.680Z,7.4
2023-01-12T03:00:09.746Z,7.4
2023-01-12T03:03:10.138Z,7.4
2023-01-12T03:06:09.820Z,7.4
2023-01-12T03:09:09.767Z,7.4
2023-01-12T03:12:09.857Z,7.4
2023-01-12T03:15:09.919Z,7.4
2023-01-12T03:18:09.721Z,7.4
2023-01-12T03:21:09.768Z,7.4
2023-01-12T03:24:09.734Z,7.4
2023-01-12T03:27:09.867Z,7.3
2023-01-12T03:30:09.751Z,7.3
2023-01-12T03:33:09.779Z,7.4
2023-01-12T03:36:09.721Z,7.4
2023-01-12T03:39:09.827Z,7.4
2023-01-12T03:42:09.835Z,7.4
2023-01-12T03:45:09.699Z,7.4
2023-01-12T03:48:09.730Z,7.4
2023-01-12T03:51:09.697Z,7.4
2023-01-12T03:54:09.714Z,7.4
2023-01-12T03:57:09.723Z,7.5
2023-01-12T04:00:09.806Z,7.4
2023-01-12T04:03:10.006Z,7.6
2023-01-12T04:06:09.774Z,7.5
2023-01-12T04:09:09.780Z,7.5
2023-01-12T04:12:09.825Z,7.4
2023-01-12T04:15:09.764Z,7.5
2023-01-12T04:18:09.692Z,7.6
2023-01-12T04:21:09.706Z,7.6
2023-01-12T04:24:09.813Z,7.6
2023-01-12T04:27:09.712Z,7.6
2023-01-12T04:30:09.803Z,7.6
2023-01-12T04:33:09.784Z,7.6
2023-01-12T04:36:09.707Z,7.6
2023-01-12T04:39:09.754Z,7.6
2023-01-12T04:42:09.880Z,7.6
2023-01-12T04:45:09.836Z,7.6
2023-01-12T04:48:09.736Z,7.7
2023-01-12T04:51:09.713Z,7.7
2023-01-12T04:54:09.749Z,7.7
2023-01-12T04:57:09.787Z,7.7
2023-01-12T05:00:09.867Z,7.7
2023-01-12T05:03:09.738Z,7.7
2023-01-12T05:06:09.802Z,7.7
2023-01-12T05:09:09.996Z,7.7
2023-01-12T05:12:09.734Z,7.7
2023-01-12T05:15:09.722Z,7.7
2023-01-12T05:18:09.823Z,7.8
2023-01-12T05:21:09.770Z,7.8
2023-01-12T05:24:09.711Z,7.8
2023-01-12T05:27:09.793Z,7.7
2023-01-12T05:30:09.743Z,7.7
2023-01-12T05:33:09.817Z,7.8
2023-01-12T05:36:09.907Z,7.8
2023-01-12T05:39:09.729Z,7.8
2023-01-12T05:42:09.664Z,7.9
2023-01-12T05:45:09.808Z,7.8
2023-01-12T05:48:09.689Z,7.8
2023-01-12T05:51:12.109Z,7.8
2023-01-12T05:54:09.740Z,7.8
2023-01-12T05:57:09.729Z,7.9
2023-01-12T06:00:09.822Z,7.9
2023-01-12T06:03:09.850Z,7.9
2023-01-12T06:06:10.395Z,7.9
2023-01-12T06:09:09.839Z,7.9
2023-01-12T06:12:12.293Z,8
2023-01-12T06:15:09.849Z,8.1
2023-01-12T06:18:09.716Z,8
2023-01-12T06:21:09.771Z,8
2023-01-12T06:24:09.697Z,7.9
2023-01-12T06:27:09.757Z,7.9
2023-01-12T06:30:09.679Z,7.9
2023-01-12T06:33:09.791Z,8
2023-01-12T06:36:09.725Z,8
2023-01-12T06:39:09.765Z,8.1
2023-01-12T06:42:09.727Z,8.1
2023-01-12T06:45:09.748Z,8.1
2023-01-12T06:48:09.809Z,8.2
2023-01-12T06:51:09.788Z,8.1
2023-01-12T06:54:09.699Z,8.3
2023-01-12T06:57:09.703Z,8.3
2023-01-12T07:00:09.751Z,8.3
2023-01-12T07:03:09.792Z,8.3
2023-01-12T07:06:09.798Z,8.3
2023-01-12T07:09:09.689Z,8.3
2023-01-12T07:12:09.660Z,8.3
2023-01-12T07:15:09.833Z,8.3
2023-01-12T07:18:09.843Z,8.3
2023-01-12T07:21:09.790Z,8.3
2023-01-12T07:24:09.790Z,8.3
2023-01-12T07:27:09.804Z,8.4
2023-01-12T07:30:09.974Z,8.3
2023-01-12T07:33:09.815Z,8.3
2023-01-12T07:36:09.870Z,8.3
2023-01-12T07:39:09.742Z,8.4
2023-01-12T07:42:09.830Z,8.4
2023-01-12T07:45:09.875Z,8.5
2023-01-12T07:48:09.903Z,8.6
2023-01-12T07:51:09.810Z,8.6
2023-01-12T07:54:09.863Z,8.6
2023-01-12T07:57:09.793Z,8.6
2023-01-12T08:00:10.029Z,8.7
2023-01-12T08:03:09.783Z,8.6
2023-01-12T08:06:09.886Z,8.6
2023-01-12T08:09:09.854Z,8.7
2023-01-12T08:12:09.864Z,8.8
2023-01-12T08:15:09.881Z,8.8
2023-01-12T08:18:12.527Z,8.8
2023-01-12T08:21:09.741Z,8.8
2023-01-12T08:24:09.818Z,8.7
2023-01-12T08:27:09.935Z,8.6
2023-01-12T08:30:09.905Z,8.6
2023-01-12T08:33:10.157Z,8.6
2023-01-12T08:36:09.836Z,8.6
2023-01-12T08:39:09.832Z,8.6
2023-01-12T08:42:09.920Z,8.6
2023-01-12T08:45:09.906Z,8.7
2023-01-12T08:48:09.782Z,8.7
2023-01-12T08:51:09.778Z,8.7
2023-01-12T08:54:09.905Z,8.7
2023-01-12T08:57:09.851Z,8.7
2023-01-12T09:00:09.891Z,8.8
2023-01-12T09:03:09.819Z,8.8
2023-01-12T09:06:09.850Z,8.9
2023-01-12T09:09:09.813Z,8.9
2023-01-12T09:12:09.888Z,9
2023-01-12T09:15:09.899Z,9
2023-01-12T09:18:09.765Z,9
2023-01-12T09:21:09.782Z,9.1
2023-01-12T09:24:09.850Z,9.1
2023-01-12T09:27:09.854Z,9.1
2023-01-12T09:30:10.022Z,9.1
2023-01-12T09:33:09.863Z,9.1
2023-01-12T09:36:09.772Z,9
2023-01-12T09:39:26.709Z,8.9
2023-01-12T09:42:09.862Z,8.9
2023-01-12T09:45:09.863Z,9.1
2023-01-12T09:48:09.835Z,9.3
2023-01-12T09:51:09.868Z,9.6
2023-01-12T09:54:09.846Z,9.9
2023-01-12T09:57:20.762Z,10.1
2023-01-12T10:00:09.841Z,9.9
2023-01-12T10:03:10.710Z,9.6
2023-01-12T10:06:09.853Z,9.5
2023-01-12T10:09:09.800Z,9.6
2023-01-12T10:12:09.832Z,9.9
2023-01-12T10:15:09.788Z,9.7
2023-01-12T10:18:09.897Z,9.5
2023-01-12T10:21:09.839Z,9.6
2023-01-12T10:24:09.776Z,9.8
2023-01-12T10:27:09.897Z,9.6
2023-01-12T10:30:09.889Z,9.4
2023-01-12T10:33:09.822Z,9.3
2023-01-12T10:36:09.817Z,9.3
2023-01-12T10:39:10.028Z,9.5
2023-01-12T10:42:09.761Z,9.6
2023-01-12T10:45:10.173Z,9.6
2023-01-12T10:48:09.922Z,9.6
2023-01-12T10:51:09.776Z,9.4
2023-01-12T10:54:09.803Z,9.5
2023-01-12T10:57:09.786Z,9.5
2023-01-12T11:00:09.866Z,9.4
2023-01-12T11:03:10.111Z,9.5
2023-01-12T11:06:09.777Z,9.5
2023-01-12T11:09:09.779Z,9.6
2023-01-12T11:12:09.714Z,9.6
2023-01-12T11:15:09.748Z,9.6
2023-01-12T11:18:09.744Z,9.6
2023-01-12T11:21:09.719Z,9.7
2023-01-12T11:24:09.859Z,9.8
2023-01-12T11:27:09.832Z,9.8
2023-01-12T11:30:09.861Z,9.6
2023-01-12T11:33:09.982Z,9.6
2023-01-12T11:36:09.801Z,9.6
2023-01-12T11:39:09.888Z,9.7
2023-01-12T11:42:09.826Z,9.7
2023-01-12T11:45:09.805Z,9.6
2023-01-12T11:48:09.815Z,9.7
2023-01-12T11:51:09.770Z,9.8
2023-01-12T11:54:09.812Z,9.9
2023-01-12T11:57:09.756Z,10.1
2023-01-12T12:00:10.112Z,10.1
2023-01-12T12:03:09.809Z,10.1
2023-01-12T12:06:09.793Z,10
2023-01-12T12:09:09.675Z,9.9
2023-01-12T12:12:09.807Z,9.9
2023-01-12T12:15:09.769Z,10
2023-01-12T12:18:09.751Z,10.1
2023-01-12T12:21:09.734Z,10.2
2023-01-12T12:24:09.735Z,10.3
2023-01-12T12:27:09.720Z,10.3
2023-01-12T12:30:09.957Z,10.2
2023-01-12T12:33:09.833Z,10.1
2023-01-12T12:36:09.814Z,10
2023-01-12T12:39:09.832Z,10.1
2023-01-12T12:42:09.805Z,10.1
2023-01-12T12:45:09.737Z,10.1
2023-01-12T12:48:09.779Z,10.1
2023-01-12T12:51:09.820Z,10.1
2023-01-12T12:54:09.785Z,10
2023-01-12T12:57:09.787Z,9.9
2023-01-12T13:00:10.496Z,9.8
2023-01-12T13:03:10.120Z,9.8
2023-01-12T13:06:09.823Z,9.7
2023-01-12T13:09:09.896Z,9.6
2023-01-12T13:12:09.776Z,9.6
2023-01-12T13:15:09.863Z,9.6
2023-01-12T13:18:09.809Z,9.7
2023-01-12T13:21:09.723Z,9.8
2023-01-12T13:24:09.859Z,9.8
2023-01-12T13:27:09.826Z,9.8
2023-01-12T13:30:09.893Z,9.8
2023-01-12T13:33:09.746Z,9.8
2023-01-12T13:36:12.218Z,9.8
2023-01-12T13:39:09.807Z,9.8
2023-01-12T13:42:11.618Z,9.8
2023-01-12T13:45:09.880Z,9.7
2023-01-12T13:48:09.791Z,9.7
2023-01-12T13:51:09.838Z,9.7
2023-01-12T13:54:09.985Z,9.8
2023-01-12T13:57:09.910Z,9.8
2023-01-12T14:00:09.939Z,9.8
2023-01-12T14:03:10.124Z,9.8
2023-01-12T14:06:09.814Z,9.8
2023-01-12T14:09:09.845Z,9.8
2023-01-12T14:12:09.898Z,9.8
2023-01-12T14:15:09.862Z,9.7
2023-01-12T14:18:09.819Z,9.6
2023-01-12T14:21:09.839Z,9.6
2023-01-12T14:24:09.983Z,9.6
2023-01-12T14:27:09.871Z,9.6
2023-01-12T14:30:09.751Z,9.6
2023-01-12T14:33:10.006Z,9.6
2023-01-12T14:36:09.788Z,9.6
2023-01-12T14:39:10.039Z,9.6
2023-01-12T14:42:09.946Z,9.5
2023-01-12T14:45:09.916Z,9.5
2023-01-12T14:48:09.774Z,9.4
2023-01-12T14:51:09.814Z,9.4
2023-01-12T14:54:09.747Z,9.3
2023-01-12T14:57:09.915Z,9.3
2023-01-12T15:00:09.923Z,9.3
2023-01-12T15:03:09.834Z,9.3
2023-01-12T15:06:09.775Z,9.3
2023-01-12T15:09:09.816Z,9.3
2023-01-12T15:12:09.774Z,9.3
2023-01-12T15:15:09.789Z,9.3
2023-01-12T15:18:09.810Z,9.2
2023-01-12T15:21:09.889Z,9.2
2023-01-12T15:24:09.857Z,9.2
2023-01-12T15:27:15.832Z,9.2
2023-01-12T15:30:09.906Z,9.2
2023-01-12T15:33:09.791Z,9.2
2023-01-12T15:36:09.718Z,9.3
2023-01-12T15:39:09.729Z,9.2
2023-01-12T15:42:09.727Z,9.2
2023-01-12T15:45:09.803Z,9.2
2023-01-12T15:48:09.813Z,9.2
2023-01-12T15:51:09.804Z,9.2
2023-01-12T15:54:09.730Z,9.2
2023-01-12T15:57:09.753Z,9.3
2023-01-12T16:00:09.888Z,9.2
2023-01-12T16:03:10.115Z,9.3
2023-01-12T16:06:09.863Z,9.2
2023-01-12T16:09:09.897Z,9.3
2023-01-12T16:12:09.835Z,9.3
2023-01-12T16:15:09.766Z,9.2
2023-01-12T16:18:09.868Z,9.2
2023-01-12T16:21:09.776Z,9.2
2023-01-12T16:24:10.324Z,9.2
2023-01-12T16:27:09.952Z,9.2
2023-01-12T16:30:10.285Z,9.2
2023-01-12T16:33:10.159Z,9.2
2023-01-12T16:36:09.834Z,9.2
2023-01-12T16:39:09.804Z,9.1
2023-01-12T16:42:09.705Z,9.2
2023-01-12T16:45:09.790Z,9.1
2023-01-12T16:48:09.812Z,9.1
2023-01-12T16:51:09.718Z,9.1
2023-01-12T16:54:10.044Z,9.1
2023-01-12T16:57:09.740Z,9.2
2023-01-12T17:00:10.156Z,9.2
2023-01-12T17:03:10.649Z,9.3
2023-01-12T17:06:10.079Z,9.4
2023-01-12T17:09:10.289Z,9.4
2023-01-12T17:12:10.533Z,9.4
2023-01-12T17:15:10.629Z,9.4
2023-01-12T17:18:10.671Z,9.4
2023-01-12T17:21:10.077Z,9.4
2023-01-12T17:24:09.928Z,9.4
2023-01-12T17:27:09.721Z,9.4
2023-01-12T17:30:10.163Z,9.4
2023-01-12T17:33:09.990Z,9.4
2023-01-12T17:36:09.982Z,9.4
2023-01-12T17:39:09.787Z,9.4
2023-01-12T17:42:09.998Z,9.3
2023-01-12T17:45:09.783Z,9.3
2023-01-12T17:48:09.856Z,9.3
2023-01-12T17:51:09.767Z,9.2
2023-01-12T17:54:09.875Z,9.3
2023-01-12T17:57:09.762Z,9.3
2023-01-12T18:00:10.231Z,9.4
2023-01-12T18:03:10.292Z,9.5
2023-01-12T18:06:31.109Z,9.6
2023-01-12T18:09:09.883Z,9.6
2023-01-12T18:12:09.720Z,9.6
2023-01-12T18:15:09.690Z,9.6
2023-01-12T18:18:09.834Z,9.6
2023-01-12T18:21:09.741Z,9.5
2023-01-12T18:24:09.793Z,9.5
2023-01-12T18:27:09.786Z,9.4
2023-01-12T18:30:09.830Z,9.4
2023-01-12T18:33:09.814Z,9.4
2023-01-12T18:36:09.905Z,9.4
2023-01-12T18:39:09.741Z,9.3
2023-01-12T18:42:09.817Z,9.3
2023-01-12T18:45:09.828Z,9.3
2023-01-12T18:48:09.846Z,9.3
2023-01-12T18:51:10.076Z,9.3
2023-01-12T18:54:09.799Z,9.4
2023-01-12T18:57:09.853Z,9.3
2023-01-12T19:00:09.783Z,9.4
2023-01-12T19:03:10.482Z,9.4
2023-01-12T19:06:09.825Z,9.4
2023-01-12T19:09:09.807Z,9.3
2023-01-12T19:12:09.782Z,9.3
2023-01-12T19:15:09.855Z,9.3
2023-01-12T19:18:09.795Z,9.2
2023-01-12T19:21:09.856Z,9.3
2023-01-12T19:24:09.839Z,9.2
2023-01-12T19:27:09.771Z,9.1
2023-01-12T19:30:09.763Z,9.1
2023-01-12T19:33:09.772Z,9.1
2023-01-12T19:36:09.762Z,9.1
2023-01-12T19:39:09.766Z,9.2
2023-01-12T19:42:09.778Z,9.1
2023-01-12T19:45:09.775Z,9.1
2023-01-12T19:48:09.766Z,9.2
2023-01-12T19:51:12.610Z,9.3
2023-01-12T19:54:09.750Z,9.2
2023-01-12T19:57:09.693Z,9.2
2023-01-12T20:00:09.833Z,9.1
2023-01-12T20:03:10.270Z,9.2
2023-01-12T20:06:09.715Z,9.2
2023-01-12T20:09:09.787Z,9.1
2023-01-12T20:12:09.779Z,9.1
2023-01-12T20:15:09.803Z,9.1
2023-01-12T20:18:12.934Z,9.1
2023-01-12T20:21:09.867Z,9.1
2023-01-12T20:24:09.863Z,9.1
2023-01-12T20:27:09.732Z,9.1
2023-01-12T20:30:09.743Z,9.2
2023-01-12T20:33:10.021Z,9.2
2023-01-12T20:36:09.793Z,9.1
2023-01-12T20:39:09.728Z,9.1
2023-01-12T20:42:09.859Z,9.1
2023-01-12T20:45:09.764Z,9.1
2023-01-12T20:48:11.883Z,9.1
2023-01-12T20:51:09.830Z,9.1
2023-01-12T20:54:10.066Z,9.2
2023-01-12T20:57:09.748Z,9.2
2023-01-12T21:00:09.933Z,9.1
2023-01-12T21:03:10.183Z,9.1
2023-01-12T21:06:09.869Z,9.1
2023-01-12T21:09:09.809Z,9.1
2023-01-12T21:12:09.729Z,9.1
2023-01-12T21:15:09.741Z,9.1
2023-01-12T21:18:09.689Z,9.1
2023-01-12T21:21:09.876Z,9
2023-01-12T21:24:09.801Z,9
2023-01-12T21:27:09.878Z,9
2023-01-12T21:30:09.779Z,9
2023-01-12T21:33:09.779Z,9
2023-01-12T21:36:09.708Z,9
2023-01-12T21:39:09.885Z,9
2023-01-12T21:42:09.872Z,9
2023-01-12T21:45:10.069Z,9
2023-01-12T21:48:09.816Z,9
2023-01-12T21:51:09.834Z,9
2023-01-12T21:54:09.741Z,8.9
2023-01-12T21:57:09.701Z,8.9
2023-01-12T22:00:10.059Z,8.9
2023-01-12T22:03:09.762Z,8.9
2023-01-12T22:06:09.861Z,9
2023-01-12T22:09:09.768Z,9
2023-01-12T22:12:09.778Z,9
2023-01-12T22:15:09.816Z,8.9
2023-01-12T22:18:09.803Z,8.9
2023-01-12T22:21:09.778Z,8.9
2023-01-12T22:24:09.837Z,8.9
2023-01-12T22:27:10.028Z,8.9
2023-01-12T22:30:09.817Z,8.9
2023-01-12T22:33:09.773Z,8.9
2023-01-12T22:36:09.789Z,8.9
2023-01-12T22:39:09.936Z,8.9
2023-01-12T22:42:09.714Z,8.9
2023-01-12T22:45:09.786Z,8.8
2023-01-12T22:48:09.857Z,8.9
2023-01-12T22:51:09.732Z,8.9
2023-01-12T22:54:09.765Z,9
2023-01-12T22:57:09.701Z,9
2023-01-12T23:00:11.023Z,9.1
2023-01-12T23:03:11.645Z,9.1
2023-01-12T23:06:10.069Z,9.1
2023-01-12T23:09:09.994Z,9.2
2023-01-12T23:12:09.943Z,9.2
2023-01-12T23:15:09.938Z,9.2
2023-01-12T23:18:10.025Z,9.2
2023-01-12T23:21:09.956Z,9.3
2023-01-12T23:24:10.191Z,9.3
2023-01-12T23:27:09.977Z,9.3
2023-01-12T23:30:09.989Z,9.3
2023-01-12T23:33:10.056Z,9.3
2023-01-12T23:36:10.122Z,9.3
2023-01-12T23:39:10.004Z,9.4
2023-01-12T23:42:10.010Z,9.4
2023-01-12T23:45:09.974Z,9.4
2023-01-12T23:48:10.494Z,9.3
2023-01-12T23:51:10.039Z,9.4
2023-01-12T23:54:10.060Z,9.3
2023-01-12T23:57:10.041Z,9.3
